sensor_id;sensor_type;location;lat;lon;timestamp;temperature;humidity
35491;DHT22;21605;52.068;20.806;2022-12-07T00:01:40;3.00;99.90
35491;DHT22;21605;52.068;20.806;2022-12-07T00:04:08;3.00;99.90
35491;DHT22;21605;52.068;20.806;2022-12-07T00:06:40;3.00;99.90
35491;DHT22;21605;52.068;20.806;2022-12-07T00:09:09;3.10;99.90
35491;DHT22;21605;52.068;20.806;2022-12-07T00:11:35;3.10;99.90
35491;DHT22;21605;52.068;20.806;2022-12-07T00:14:06;3.10;99.90
35491;DHT22;21605;52.068;20.806;2022-12-07T00:16:33;3.10;99.90
35491;DHT22;21605;52.068;20.806;2022-12-07T00:19:00;3.20;99.90
35491;DHT22;21605;52.068;20.806;2022-12-07T00:21:45;3.20;99.90
35491;DHT22;21605;52.068;20.806;2022-12-07T00:24:11;3.20;99.90
35491;DHT22;21605;52.068;20.806;2022-12-07T00:26:40;3.20;99.90
35491;DHT22;21605;52.068;20.806;2022-12-07T00:29:28;3.30;99.90
35491;DHT22;21605;52.068;20.806;2022-12-07T00:32:03;3.30;99.90
35491;DHT22;21605;52.068;20.806;2022-12-07T00:34:33;3.30;99.90
35491;DHT22;21605;52.068;20.806;2022-12-07T00:36:59;3.30;99.90
35491;DHT22;21605;52.068;20.806;2022-12-07T00:39:25;3.30;99.90
35491;DHT22;21605;52.068;20.806;2022-12-07T00:41:50;3.30;99.90
35491;DHT22;21605;52.068;20.806;2022-12-07T00:44:16;3.40;99.90
35491;DHT22;21605;52.068;20.806;2022-12-07T00:46:41;3.40;99.90
35491;DHT22;21605;52.068;20.806;2022-12-07T00:49:07;3.40;99.90
35491;DHT22;21605;52.068;20.806;2022-12-07T00:51:38;3.40;99.90
35491;DHT22;21605;52.068;20.806;2022-12-07T00:54:04;3.40;99.90
35491;DHT22;21605;52.068;20.806;2022-12-07T00:56:33;3.40;99.90
35491;DHT22;21605;52.068;20.806;2022-12-07T00:59:01;3.50;99.90
35491;DHT22;21605;52.068;20.806;2022-12-07T01:01:29;3.50;99.90
35491;DHT22;21605;52.068;20.806;2022-12-07T01:04:10;3.50;99.90
35491;DHT22;21605;52.068;20.806;2022-12-07T01:06:40;3.50;99.90
35491;DHT22;21605;52.068;20.806;2022-12-07T01:09:06;3.50;99.90
35491;DHT22;21605;52.068;20.806;2022-12-07T01:11:41;3.60;99.90
35491;DHT22;21605;52.068;20.806;2022-12-07T01:14:08;4.20;99.90
35491;DHT22;21605;52.068;20.806;2022-12-07T01:16:33;3.60;99.90
35491;DHT22;21605;52.068;20.806;2022-12-07T01:19:01;3.70;99.90
35491;DHT22;21605;52.068;20.806;2022-12-07T01:21:29;3.70;99.90
35491;DHT22;21605;52.068;20.806;2022-12-07T01:23:57;3.70;99.90
35491;DHT22;21605;52.068;20.806;2022-12-07T01:26:24;3.60;99.90
35491;DHT22;21605;52.068;20.806;2022-12-07T01:28:50;3.70;99.90
35491;DHT22;21605;52.068;20.806;2022-12-07T01:31:21;3.60;99.90
35491;DHT22;21605;52.068;20.806;2022-12-07T01:33:50;3.60;99.90
35491;DHT22;21605;52.068;20.806;2022-12-07T01:36:31;3.60;99.90
35491;DHT22;21605;52.068;20.806;2022-12-07T01:39:09;3.60;99.90
35491;DHT22;21605;52.068;20.806;2022-12-07T01:41:40;3.70;99.90
35491;DHT22;21605;52.068;20.806;2022-12-07T01:46:37;3.70;99.90
35491;DHT22;21605;52.068;20.806;2022-12-07T01:49:06;3.70;99.90
35491;DHT22;21605;52.068;20.806;2022-12-07T01:51:37;3.70;99.90
35491;DHT22;21605;52.068;20.806;2022-12-07T01:54:04;3.70;99.90
35491;DHT22;21605;52.068;20.806;2022-12-07T01:56:31;3.70;99.90
35491;DHT22;21605;52.068;20.806;2022-12-07T01:59:00;3.70;99.90
35491;DHT22;21605;52.068;20.806;2022-12-07T02:01:26;3.80;99.90
35491;DHT22;21605;52.068;20.806;2022-12-07T02:03:52;3.70;99.90
35491;DHT22;21605;52.068;20.806;2022-12-07T02:06:22;3.70;99.90
35491;DHT22;21605;52.068;20.806;2022-12-07T02:08:49;3.70;99.90
35491;DHT22;21605;52.068;20.806;2022-12-07T02:11:15;3.70;99.90
35491;DHT22;21605;52.068;20.806;2022-12-07T02:13:43;3.70;99.90
35491;DHT22;21605;52.068;20.806;2022-12-07T02:18:48;3.70;99.90
35491;DHT22;21605;52.068;20.806;2022-12-07T02:35:21;3.70;99.90
35491;DHT22;21605;52.068;20.806;2022-12-07T02:40:50;3.60;99.90
35491;DHT22;21605;52.068;20.806;2022-12-07T02:43:21;3.60;99.90
35491;DHT22;21605;52.068;20.806;2022-12-07T02:45:50;3.60;99.90
35491;DHT22;21605;52.068;20.806;2022-12-07T02:48:17;3.60;99.90
35491;DHT22;21605;52.068;20.806;2022-12-07T02:50:52;3.70;99.90
35491;DHT22;21605;52.068;20.806;2022-12-07T02:56:53;3.50;99.90
35491;DHT22;21605;52.068;20.806;2022-12-07T03:00:25;3.50;99.90
35491;DHT22;21605;52.068;20.806;2022-12-07T03:02:35;3.40;99.90
35491;DHT22;21605;52.068;20.806;2022-12-07T03:08:08;3.40;99.90
35491;DHT22;21605;52.068;20.806;2022-12-07T03:10:59;3.40;99.90
35491;DHT22;21605;52.068;20.806;2022-12-07T03:19:01;3.30;99.90
35491;DHT22;21605;52.068;20.806;2022-12-07T03:21:49;3.30;99.90
35491;DHT22;21605;52.068;20.806;2022-12-07T03:24:22;3.30;99.90
35491;DHT22;21605;52.068;20.806;2022-12-07T03:26:56;3.30;99.90
35491;DHT22;21605;52.068;20.806;2022-12-07T03:29:34;3.20;99.90
35491;DHT22;21605;52.068;20.806;2022-12-07T03:32:37;3.20;99.90
35491;DHT22;21605;52.068;20.806;2022-12-07T03:35:34;3.20;99.90
35491;DHT22;21605;52.068;20.806;2022-12-07T03:38:23;3.20;99.90
35491;DHT22;21605;52.068;20.806;2022-12-07T03:41:12;3.10;99.90
35491;DHT22;21605;52.068;20.806;2022-12-07T03:43:40;3.10;99.90
35491;DHT22;21605;52.068;20.806;2022-12-07T03:56:55;3.20;99.90
35491;DHT22;21605;52.068;20.806;2022-12-07T03:59:21;3.00;99.90
35491;DHT22;21605;52.068;20.806;2022-12-07T04:01:55;3.00;99.90
35491;DHT22;21605;52.068;20.806;2022-12-07T04:04:23;2.90;99.90
35491;DHT22;21605;52.068;20.806;2022-12-07T04:06:49;3.00;99.90
35491;DHT22;21605;52.068;20.806;2022-12-07T04:09:15;3.00;99.90
35491;DHT22;21605;52.068;20.806;2022-12-07T04:11:41;3.00;99.90
35491;DHT22;21605;52.068;20.806;2022-12-07T04:14:07;3.00;99.90
35491;DHT22;21605;52.068;20.806;2022-12-07T04:16:52;3.00;99.90
35491;DHT22;21605;52.068;20.806;2022-12-07T04:19:20;3.00;99.90
35491;DHT22;21605;52.068;20.806;2022-12-07T04:21:46;3.00;99.90
35491;DHT22;21605;52.068;20.806;2022-12-07T04:24:13;3.00;99.90
35491;DHT22;21605;52.068;20.806;2022-12-07T04:26:39;2.90;99.90
35491;DHT22;21605;52.068;20.806;2022-12-07T04:29:04;2.90;99.90
35491;DHT22;21605;52.068;20.806;2022-12-07T04:31:30;2.90;99.90
35491;DHT22;21605;52.068;20.806;2022-12-07T04:33:55;2.90;99.90
35491;DHT22;21605;52.068;20.806;2022-12-07T04:36:21;2.80;99.90
35491;DHT22;21605;52.068;20.806;2022-12-07T04:38:47;2.80;99.90
35491;DHT22;21605;52.068;20.806;2022-12-07T04:41:13;2.80;99.90
35491;DHT22;21605;52.068;20.806;2022-12-07T04:43:39;2.80;99.90
35491;DHT22;21605;52.068;20.806;2022-12-07T04:46:05;2.80;99.90
35491;DHT22;21605;52.068;20.806;2022-12-07T04:48:30;2.70;99.90
35491;DHT22;21605;52.068;20.806;2022-12-07T04:50:56;2.70;99.90
35491;DHT22;21605;52.068;20.806;2022-12-07T04:53:22;2.80;99.90
35491;DHT22;21605;52.068;20.806;2022-12-07T04:55:48;2.80;99.90
35491;DHT22;21605;52.068;20.806;2022-12-07T04:58:14;2.80;99.90
35491;DHT22;21605;52.068;20.806;2022-12-07T05:00:40;2.80;99.90
35491;DHT22;21605;52.068;20.806;2022-12-07T05:03:13;2.70;99.90
35491;DHT22;21605;52.068;20.806;2022-12-07T05:05:40;2.70;99.90
35491;DHT22;21605;52.068;20.806;2022-12-07T05:08:06;1.50;99.90
35491;DHT22;21605;52.068;20.806;2022-12-07T05:10:32;2.70;99.90
35491;DHT22;21605;52.068;20.806;2022-12-07T05:12:58;2.60;99.90
35491;DHT22;21605;52.068;20.806;2022-12-07T05:15:23;2.60;99.90
35491;DHT22;21605;52.068;20.806;2022-12-07T05:17:49;2.60;99.90
35491;DHT22;21605;52.068;20.806;2022-12-07T05:20:14;2.60;99.90
35491;DHT22;21605;52.068;20.806;2022-12-07T05:22:40;2.60;99.90
35491;DHT22;21605;52.068;20.806;2022-12-07T05:25:06;2.60;99.90
35491;DHT22;21605;52.068;20.806;2022-12-07T05:27:31;2.60;99.90
35491;DHT22;21605;52.068;20.806;2022-12-07T05:29:57;2.70;99.90
35491;DHT22;21605;52.068;20.806;2022-12-07T05:32:23;2.60;99.90
35491;DHT22;21605;52.068;20.806;2022-12-07T05:34:51;2.60;99.90
35491;DHT22;21605;52.068;20.806;2022-12-07T05:37:20;2.60;99.90
35491;DHT22;21605;52.068;20.806;2022-12-07T05:39:47;2.60;99.90
35491;DHT22;21605;52.068;20.806;2022-12-07T05:42:12;2.60;99.90
35491;DHT22;21605;52.068;20.806;2022-12-07T05:44:57;2.60;99.90
35491;DHT22;21605;52.068;20.806;2022-12-07T05:47:23;2.60;99.90
35491;DHT22;21605;52.068;20.806;2022-12-07T05:49:51;2.50;99.90
35491;DHT22;21605;52.068;20.806;2022-12-07T05:52:17;2.50;99.90
35491;DHT22;21605;52.068;20.806;2022-12-07T05:54:52;2.50;99.90
35491;DHT22;21605;52.068;20.806;2022-12-07T05:57:18;2.50;99.90
35491;DHT22;21605;52.068;20.806;2022-12-07T05:59:53;2.50;99.90
35491;DHT22;21605;52.068;20.806;2022-12-07T06:02:18;2.50;99.90
35491;DHT22;21605;52.068;20.806;2022-12-07T06:04:53;2.50;99.90
35491;DHT22;21605;52.068;20.806;2022-12-07T06:07:18;2.40;99.90
35491;DHT22;21605;52.068;20.806;2022-12-07T06:09:53;2.40;99.90
35491;DHT22;21605;52.068;20.806;2022-12-07T06:12:19;2.50;99.90
35491;DHT22;21605;52.068;20.806;2022-12-07T06:14:59;2.40;99.90
35491;DHT22;21605;52.068;20.806;2022-12-07T06:17:25;2.40;99.90
35491;DHT22;21605;52.068;20.806;2022-12-07T06:19:54;2.50;99.90
35491;DHT22;21605;52.068;20.806;2022-12-07T06:22:19;2.50;99.90
35491;DHT22;21605;52.068;20.806;2022-12-07T06:24:45;2.40;99.90
35491;DHT22;21605;52.068;20.806;2022-12-07T06:27:11;2.40;99.90
35491;DHT22;21605;52.068;20.806;2022-12-07T06:29:36;2.40;99.90
35491;DHT22;21605;52.068;20.806;2022-12-07T06:32:02;2.30;99.90
35491;DHT22;21605;52.068;20.806;2022-12-07T06:34:28;2.40;99.90
35491;DHT22;21605;52.068;20.806;2022-12-07T06:36:54;2.40;99.90
35491;DHT22;21605;52.068;20.806;2022-12-07T06:39:27;2.40;99.90
35491;DHT22;21605;52.068;20.806;2022-12-07T06:41:55;2.40;99.90
35491;DHT22;21605;52.068;20.806;2022-12-07T06:44:21;2.40;99.90
35491;DHT22;21605;52.068;20.806;2022-12-07T06:46:52;2.30;99.90
35491;DHT22;21605;52.068;20.806;2022-12-07T06:49:18;2.30;99.90
35491;DHT22;21605;52.068;20.806;2022-12-07T06:51:44;2.30;99.90
35491;DHT22;21605;52.068;20.806;2022-12-07T06:54:14;2.30;99.90
35491;DHT22;21605;52.068;20.806;2022-12-07T06:56:40;2.30;99.90
35491;DHT22;21605;52.068;20.806;2022-12-07T06:59:06;2.30;99.90
35491;DHT22;21605;52.068;20.806;2022-12-07T07:01:32;2.30;99.90
35491;DHT22;21605;52.068;20.806;2022-12-07T07:03:58;2.30;99.90
35491;DHT22;21605;52.068;20.806;2022-12-07T07:06:24;2.30;99.90
35491;DHT22;21605;52.068;20.806;2022-12-07T07:08:56;2.30;99.90
35491;DHT22;21605;52.068;20.806;2022-12-07T07:11:21;2.40;99.90
35491;DHT22;21605;52.068;20.806;2022-12-07T07:13:56;2.40;99.90
35491;DHT22;21605;52.068;20.806;2022-12-07T07:16:24;2.40;99.90
35491;DHT22;21605;52.068;20.806;2022-12-07T07:18:56;2.30;99.90
35491;DHT22;21605;52.068;20.806;2022-12-07T07:21:22;2.30;99.90
35491;DHT22;21605;52.068;20.806;2022-12-07T07:23:57;2.30;99.90
35491;DHT22;21605;52.068;20.806;2022-12-07T07:26:22;2.30;99.90
35491;DHT22;21605;52.068;20.806;2022-12-07T07:28:53;2.40;99.90
35491;DHT22;21605;52.068;20.806;2022-12-07T07:31:19;2.40;99.90
35491;DHT22;21605;52.068;20.806;2022-12-07T07:33:46;2.30;99.90
35491;DHT22;21605;52.068;20.806;2022-12-07T07:36:12;2.30;99.90
35491;DHT22;21605;52.068;20.806;2022-12-07T07:38:37;2.30;99.90
35491;DHT22;21605;52.068;20.806;2022-12-07T07:41:03;2.30;99.90
35491;DHT22;21605;52.068;20.806;2022-12-07T07:43:29;2.30;99.90
35491;DHT22;21605;52.068;20.806;2022-12-07T07:45:57;2.30;99.90
35491;DHT22;21605;52.068;20.806;2022-12-07T07:48:23;2.40;99.90
35491;DHT22;21605;52.068;20.806;2022-12-07T07:50:59;2.30;99.90
35491;DHT22;21605;52.068;20.806;2022-12-07T07:53:25;2.30;99.90
35491;DHT22;21605;52.068;20.806;2022-12-07T07:55:59;2.40;99.90
35491;DHT22;21605;52.068;20.806;2022-12-07T07:58:25;2.40;99.90
35491;DHT22;21605;52.068;20.806;2022-12-07T08:01:02;2.30;99.90
35491;DHT22;21605;52.068;20.806;2022-12-07T08:03:28;2.40;99.90
35491;DHT22;21605;52.068;20.806;2022-12-07T08:05:59;2.40;99.90
35491;DHT22;21605;52.068;20.806;2022-12-07T08:08:25;2.40;99.90
35491;DHT22;21605;52.068;20.806;2022-12-07T08:10:56;2.40;99.90
35491;DHT22;21605;52.068;20.806;2022-12-07T08:13:25;2.50;99.90
35491;DHT22;21605;52.068;20.806;2022-12-07T08:16:04;2.40;99.90
35491;DHT22;21605;52.068;20.806;2022-12-07T08:18:30;2.50;99.90
35491;DHT22;21605;52.068;20.806;2022-12-07T08:21:00;2.50;99.90
35491;DHT22;21605;52.068;20.806;2022-12-07T08:23:27;2.50;99.90
35491;DHT22;21605;52.068;20.806;2022-12-07T08:26:02;2.60;99.90
35491;DHT22;21605;52.068;20.806;2022-12-07T08:28:29;2.60;99.90
35491;DHT22;21605;52.068;20.806;2022-12-07T08:31:06;2.60;99.90
35491;DHT22;21605;52.068;20.806;2022-12-07T08:33:32;2.60;99.90
35491;DHT22;21605;52.068;20.806;2022-12-07T08:36:06;2.60;99.90
35491;DHT22;21605;52.068;20.806;2022-12-07T08:38:34;2.60;99.90
35491;DHT22;21605;52.068;20.806;2022-12-07T08:41:00;2.70;99.90
35491;DHT22;21605;52.068;20.806;2022-12-07T08:43:26;2.70;99.90
35491;DHT22;21605;52.068;20.806;2022-12-07T08:46:40;2.70;99.90
35491;DHT22;21605;52.068;20.806;2022-12-07T08:49:11;2.70;99.90
35491;DHT22;21605;52.068;20.806;2022-12-07T08:51:38;2.80;99.90
35491;DHT22;21605;52.068;20.806;2022-12-07T08:54:07;1.70;99.90
35491;DHT22;21605;52.068;20.806;2022-12-07T08:56:35;2.80;99.90
35491;DHT22;21605;52.068;20.806;2022-12-07T08:59:00;2.90;99.90
35491;DHT22;21605;52.068;20.806;2022-12-07T09:01:26;2.90;99.90
35491;DHT22;21605;52.068;20.806;2022-12-07T09:03:58;2.60;99.90
35491;DHT22;21605;52.068;20.806;2022-12-07T09:06:24;3.00;99.90
35491;DHT22;21605;52.068;20.806;2022-12-07T09:09:00;3.00;99.90
35491;DHT22;21605;52.068;20.806;2022-12-07T09:11:27;3.00;99.90
35491;DHT22;21605;52.068;20.806;2022-12-07T09:14:01;3.00;99.90
35491;DHT22;21605;52.068;20.806;2022-12-07T09:16:27;3.10;99.90
35491;DHT22;21605;52.068;20.806;2022-12-07T09:19:02;3.10;99.90
35491;DHT22;21605;52.068;20.806;2022-12-07T09:21:28;3.10;99.90
35491;DHT22;21605;52.068;20.806;2022-12-07T09:24:03;3.10;99.90
35491;DHT22;21605;52.068;20.806;2022-12-07T09:26:29;3.20;99.90
35491;DHT22;21605;52.068;20.806;2022-12-07T09:29:03;3.20;99.90
35491;DHT22;21605;52.068;20.806;2022-12-07T09:31:29;3.20;99.90
35491;DHT22;21605;52.068;20.806;2022-12-07T09:34:04;3.30;99.90
35491;DHT22;21605;52.068;20.806;2022-12-07T09:36:31;3.30;99.90
35491;DHT22;21605;52.068;20.806;2022-12-07T09:38:57;3.30;99.90
35491;DHT22;21605;52.068;20.806;2022-12-07T09:41:24;3.30;99.90
35491;DHT22;21605;52.068;20.806;2022-12-07T09:43:51;3.30;99.90
35491;DHT22;21605;52.068;20.806;2022-12-07T09:46:19;3.30;99.90
35491;DHT22;21605;52.068;20.806;2022-12-07T09:48:46;3.40;99.90
35491;DHT22;21605;52.068;20.806;2022-12-07T09:51:22;3.40;99.90
35491;DHT22;21605;52.068;20.806;2022-12-07T09:53:48;3.40;99.90
35491;DHT22;21605;52.068;20.806;2022-12-07T09:56:15;3.40;99.90
35491;DHT22;21605;52.068;20.806;2022-12-07T09:58:42;3.50;99.90
35491;DHT22;21605;52.068;20.806;2022-12-07T10:03:35;3.60;99.90
35491;DHT22;21605;52.068;20.806;2022-12-07T10:06:01;3.60;99.90
35491;DHT22;21605;52.068;20.806;2022-12-07T10:08:27;3.50;99.90
35491;DHT22;21605;52.068;20.806;2022-12-07T10:10:55;3.60;99.90
35491;DHT22;21605;52.068;20.806;2022-12-07T10:13:39;3.50;99.90
35491;DHT22;21605;52.068;20.806;2022-12-07T10:16:31;3.60;99.90
35491;DHT22;21605;52.068;20.806;2022-12-07T10:19:27;3.60;99.90
35491;DHT22;21605;52.068;20.806;2022-12-07T10:24:29;3.60;99.90
35491;DHT22;21605;52.068;20.806;2022-12-07T10:26:55;3.80;99.90
35491;DHT22;21605;52.068;20.806;2022-12-07T10:29:36;3.70;99.90
35491;DHT22;21605;52.068;20.806;2022-12-07T10:34:39;3.60;99.90
35491;DHT22;21605;52.068;20.806;2022-12-07T10:37:15;3.70;99.90
35491;DHT22;21605;52.068;20.806;2022-12-07T10:39:51;3.70;99.90
35491;DHT22;21605;52.068;20.806;2022-12-07T10:42:44;3.70;99.90
35491;DHT22;21605;52.068;20.806;2022-12-07T10:45:32;3.70;99.90
35491;DHT22;21605;52.068;20.806;2022-12-07T10:48:12;3.70;99.90
35491;DHT22;21605;52.068;20.806;2022-12-07T10:50:58;3.80;99.90
35491;DHT22;21605;52.068;20.806;2022-12-07T11:01:57;3.90;99.90
35491;DHT22;21605;52.068;20.806;2022-12-07T11:10:59;3.90;99.90
35491;DHT22;21605;52.068;20.806;2022-12-07T11:24:44;3.80;99.90
35491;DHT22;21605;52.068;20.806;2022-12-07T11:27:25;3.80;99.90
35491;DHT22;21605;52.068;20.806;2022-12-07T11:39:35;3.90;99.90
35491;DHT22;21605;52.068;20.806;2022-12-07T11:42:19;4.00;99.90
35491;DHT22;21605;52.068;20.806;2022-12-07T11:44:57;4.00;99.90
35491;DHT22;21605;52.068;20.806;2022-12-07T11:50:45;3.90;99.90
35491;DHT22;21605;52.068;20.806;2022-12-07T11:53:27;3.90;99.90
35491;DHT22;21605;52.068;20.806;2022-12-07T12:04:19;3.80;99.90
35491;DHT22;21605;52.068;20.806;2022-12-07T12:06:47;3.90;99.90
35491;DHT22;21605;52.068;20.806;2022-12-07T12:20:32;3.80;99.90
35491;DHT22;21605;52.068;20.806;2022-12-07T12:25:35;3.70;99.90
35491;DHT22;21605;52.068;20.806;2022-12-07T12:28:05;3.90;99.90
35491;DHT22;21605;52.068;20.806;2022-12-07T12:30:36;3.80;99.90
35491;DHT22;21605;52.068;20.806;2022-12-07T12:33:05;3.70;99.90
35491;DHT22;21605;52.068;20.806;2022-12-07T12:35:36;3.60;99.90
35491;DHT22;21605;52.068;20.806;2022-12-07T12:38:26;3.60;99.90
35491;DHT22;21605;52.068;20.806;2022-12-07T12:40:55;3.60;99.90
35491;DHT22;21605;52.068;20.806;2022-12-07T12:51:50;3.50;99.90
35491;DHT22;21605;52.068;20.806;2022-12-07T12:54:23;3.50;99.90
35491;DHT22;21605;52.068;20.806;2022-12-07T12:59:32;3.60;99.90
35491;DHT22;21605;52.068;20.806;2022-12-07T13:06:58;3.50;99.90
35491;DHT22;21605;52.068;20.806;2022-12-07T13:09:34;3.50;99.90
35491;DHT22;21605;52.068;20.806;2022-12-07T13:12:05;3.60;99.90
35491;DHT22;21605;52.068;20.806;2022-12-07T13:23:02;3.70;99.90
35491;DHT22;21605;52.068;20.806;2022-12-07T13:25:55;3.80;99.90
35491;DHT22;21605;52.068;20.806;2022-12-07T13:28:31;3.70;99.90
35491;DHT22;21605;52.068;20.806;2022-12-07T13:33:44;3.70;99.90
35491;DHT22;21605;52.068;20.806;2022-12-07T13:36:25;3.70;99.90
35491;DHT22;21605;52.068;20.806;2022-12-07T13:38:57;3.60;99.90
35491;DHT22;21605;52.068;20.806;2022-12-07T13:41:28;3.70;99.90
35491;DHT22;21605;52.068;20.806;2022-12-07T13:44:07;3.70;99.90
35491;DHT22;21605;52.068;20.806;2022-12-07T13:49:37;3.70;99.90
35491;DHT22;21605;52.068;20.806;2022-12-07T13:52:22;3.70;99.90
35491;DHT22;21605;52.068;20.806;2022-12-07T13:54:57;3.60;99.90
35491;DHT22;21605;52.068;20.806;2022-12-07T13:57:25;3.60;99.90
35491;DHT22;21605;52.068;20.806;2022-12-07T13:59:52;3.70;99.90
35491;DHT22;21605;52.068;20.806;2022-12-07T14:02:30;3.60;99.90
35491;DHT22;21605;52.068;20.806;2022-12-07T14:05:24;3.70;99.90
35491;DHT22;21605;52.068;20.806;2022-12-07T14:07:56;3.60;99.90
35491;DHT22;21605;52.068;20.806;2022-12-07T14:10:28;3.60;99.90
35491;DHT22;21605;52.068;20.806;2022-12-07T14:12:54;3.50;99.90
35491;DHT22;21605;52.068;20.806;2022-12-07T14:15:31;3.60;99.90
35491;DHT22;21605;52.068;20.806;2022-12-07T14:17:59;3.50;99.90
35491;DHT22;21605;52.068;20.806;2022-12-07T14:20:38;3.50;99.90
35491;DHT22;21605;52.068;20.806;2022-12-07T14:23:06;3.50;99.90
35491;DHT22;21605;52.068;20.806;2022-12-07T14:25:47;3.40;99.90
35491;DHT22;21605;52.068;20.806;2022-12-07T14:28:33;3.30;99.90
35491;DHT22;21605;52.068;20.806;2022-12-07T14:31:00;3.30;99.90
35491;DHT22;21605;52.068;20.806;2022-12-07T14:33:26;3.30;99.90
35491;DHT22;21605;52.068;20.806;2022-12-07T14:35:52;3.20;99.90
35491;DHT22;21605;52.068;20.806;2022-12-07T14:38:23;3.30;99.90
35491;DHT22;21605;52.068;20.806;2022-12-07T14:40:53;3.40;99.90
35491;DHT22;21605;52.068;20.806;2022-12-07T14:43:20;3.30;99.90
35491;DHT22;21605;52.068;20.806;2022-12-07T14:45:46;3.30;99.90
35491;DHT22;21605;52.068;20.806;2022-12-07T14:48:15;3.20;99.90
35491;DHT22;21605;52.068;20.806;2022-12-07T14:50:44;3.20;99.90
35491;DHT22;21605;52.068;20.806;2022-12-07T14:53:19;3.10;99.90
35491;DHT22;21605;52.068;20.806;2022-12-07T14:55:46;3.10;99.90
35491;DHT22;21605;52.068;20.806;2022-12-07T14:58:18;3.10;99.90
35491;DHT22;21605;52.068;20.806;2022-12-07T15:00:44;3.20;99.90
35491;DHT22;21605;52.068;20.806;2022-12-07T15:03:16;3.30;99.90
35491;DHT22;21605;52.068;20.806;2022-12-07T15:05:42;3.40;99.90
35491;DHT22;21605;52.068;20.806;2022-12-07T15:08:16;3.10;99.90
35491;DHT22;21605;52.068;20.806;2022-12-07T15:10:43;3.10;99.90
35491;DHT22;21605;52.068;20.806;2022-12-07T15:13:17;3.20;99.90
35491;DHT22;21605;52.068;20.806;2022-12-07T15:16:01;3.10;99.90
35491;DHT22;21605;52.068;20.806;2022-12-07T15:18:27;3.10;99.90
35491;DHT22;21605;52.068;20.806;2022-12-07T15:20:53;3.10;99.90
35491;DHT22;21605;52.068;20.806;2022-12-07T15:23:18;3.20;99.90
35491;DHT22;21605;52.068;20.806;2022-12-07T15:25:47;3.20;99.90
35491;DHT22;21605;52.068;20.806;2022-12-07T15:28:18;3.40;99.90
35491;DHT22;21605;52.068;20.806;2022-12-07T15:30:44;3.10;99.90
35491;DHT22;21605;52.068;20.806;2022-12-07T15:33:19;3.10;99.90
35491;DHT22;21605;52.068;20.806;2022-12-07T15:35:45;3.00;99.90
35491;DHT22;21605;52.068;20.806;2022-12-07T15:38:20;3.00;99.90
35491;DHT22;21605;52.068;20.806;2022-12-07T15:40:49;3.00;99.90
35491;DHT22;21605;52.068;20.806;2022-12-07T15:43:19;3.00;99.90
35491;DHT22;21605;52.068;20.806;2022-12-07T15:46:03;3.00;99.90
35491;DHT22;21605;52.068;20.806;2022-12-07T15:48:29;3.00;99.90
35491;DHT22;21605;52.068;20.806;2022-12-07T15:51:06;3.00;99.90
35491;DHT22;21605;52.068;20.806;2022-12-07T15:53:33;2.90;99.90
35491;DHT22;21605;52.068;20.806;2022-12-07T15:55:59;2.90;99.90
35491;DHT22;21605;52.068;20.806;2022-12-07T15:58:25;2.90;99.90
35491;DHT22;21605;52.068;20.806;2022-12-07T16:00:50;2.80;99.90
35491;DHT22;21605;52.068;20.806;2022-12-07T16:03:16;2.90;99.90
35491;DHT22;21605;52.068;20.806;2022-12-07T16:05:42;2.90;99.90
35491;DHT22;21605;52.068;20.806;2022-12-07T16:08:22;3.00;99.90
35491;DHT22;21605;52.068;20.806;2022-12-07T16:10:48;2.90;99.90
35491;DHT22;21605;52.068;20.806;2022-12-07T16:13:13;2.90;99.90
35491;DHT22;21605;52.068;20.806;2022-12-07T16:15:40;2.90;99.90
35491;DHT22;21605;52.068;20.806;2022-12-07T16:18:06;2.90;99.90
35491;DHT22;21605;52.068;20.806;2022-12-07T16:20:31;2.90;99.90
35491;DHT22;21605;52.068;20.806;2022-12-07T16:22:58;2.90;99.90
35491;DHT22;21605;52.068;20.806;2022-12-07T16:25:23;3.00;99.90
35491;DHT22;21605;52.068;20.806;2022-12-07T16:27:50;3.00;99.90
35491;DHT22;21605;52.068;20.806;2022-12-07T16:30:21;3.10;99.90
35491;DHT22;21605;52.068;20.806;2022-12-07T16:32:46;3.10;99.90
35491;DHT22;21605;52.068;20.806;2022-12-07T16:35:17;3.10;99.90
35491;DHT22;21605;52.068;20.806;2022-12-07T16:37:42;3.20;99.90
35491;DHT22;21605;52.068;20.806;2022-12-07T16:40:09;3.10;99.90
35491;DHT22;21605;52.068;20.806;2022-12-07T16:42:35;3.20;99.90
35491;DHT22;21605;52.068;20.806;2022-12-07T16:45:01;3.20;99.90
35491;DHT22;21605;52.068;20.806;2022-12-07T16:47:27;3.20;99.90
35491;DHT22;21605;52.068;20.806;2022-12-07T16:49:52;3.20;99.90
35491;DHT22;21605;52.068;20.806;2022-12-07T16:52:19;3.20;99.90
35491;DHT22;21605;52.068;20.806;2022-12-07T16:54:46;3.20;99.90
35491;DHT22;21605;52.068;20.806;2022-12-07T16:57:12;3.20;99.90
35491;DHT22;21605;52.068;20.806;2022-12-07T16:59:37;3.20;99.90
35491;DHT22;21605;52.068;20.806;2022-12-07T17:02:03;3.10;99.90
35491;DHT22;21605;52.068;20.806;2022-12-07T17:04:29;3.10;99.90
35491;DHT22;21605;52.068;20.806;2022-12-07T17:06:55;3.10;99.90
35491;DHT22;21605;52.068;20.806;2022-12-07T17:09:22;3.10;99.90
35491;DHT22;21605;52.068;20.806;2022-12-07T17:11:47;3.10;99.90
35491;DHT22;21605;52.068;20.806;2022-12-07T17:14:25;3.10;99.90
35491;DHT22;21605;52.068;20.806;2022-12-07T17:17:10;3.10;99.90
35491;DHT22;21605;52.068;20.806;2022-12-07T17:19:36;3.00;99.90
35491;DHT22;21605;52.068;20.806;2022-12-07T17:22:01;3.10;99.90
35491;DHT22;21605;52.068;20.806;2022-12-07T17:24:27;3.10;99.90
35491;DHT22;21605;52.068;20.806;2022-12-07T17:26:52;3.10;99.90
35491;DHT22;21605;52.068;20.806;2022-12-07T17:29:23;3.10;99.90
35491;DHT22;21605;52.068;20.806;2022-12-07T17:31:49;3.10;99.90
35491;DHT22;21605;52.068;20.806;2022-12-07T17:34:18;3.20;99.90
35491;DHT22;21605;52.068;20.806;2022-12-07T17:36:43;3.20;99.90
35491;DHT22;21605;52.068;20.806;2022-12-07T17:39:12;3.20;99.90
35491;DHT22;21605;52.068;20.806;2022-12-07T17:41:39;3.20;99.90
35491;DHT22;21605;52.068;20.806;2022-12-07T17:44:24;3.20;99.90
35491;DHT22;21605;52.068;20.806;2022-12-07T17:46:52;3.10;99.90
35491;DHT22;21605;52.068;20.806;2022-12-07T17:49:26;3.30;99.90
35491;DHT22;21605;52.068;20.806;2022-12-07T17:51:52;3.30;99.90
35491;DHT22;21605;52.068;20.806;2022-12-07T17:54:36;3.30;99.90
35491;DHT22;21605;52.068;20.806;2022-12-07T17:57:01;3.30;99.90
35491;DHT22;21605;52.068;20.806;2022-12-07T17:59:27;3.30;99.90
35491;DHT22;21605;52.068;20.806;2022-12-07T18:01:53;3.20;99.90
35491;DHT22;21605;52.068;20.806;2022-12-07T18:04:27;3.20;99.90
35491;DHT22;21605;52.068;20.806;2022-12-07T18:06:53;3.10;99.90
35491;DHT22;21605;52.068;20.806;2022-12-07T18:09:24;3.10;99.90
35491;DHT22;21605;52.068;20.806;2022-12-07T18:11:50;3.20;99.90
35491;DHT22;21605;52.068;20.806;2022-12-07T18:14:15;3.20;99.90